Waverly, Missouri
Current Conditions -  °F | °C
As of 3:35 PM on Friday 21 Nov 2014 (Local Time) from KMHL Reporting Station
Broken Clouds Broken Clouds  
Wind Chill: 39°   Ceiling: 2000
Heat Index: 45°   Visibility: 10mi
Dew Point: 28°   Wind: 12mph
Humidity: 53%   Direction: 120°ESE
Pressure: 30.17"   Gusts: NA
Location:  39.21°N, 93.52°W
Report Text: KMHL 212135Z AUTO 12010KT 10SM BKN020 BKN065 BKN095 07/M02 A3017 RMK AO2
Loading
Personal Weather Stations






























Interactive Weather Map New forecast layout! Learn more

10-Day Weather Forecast

Advertisements
Track Severe Weather on mobile